Hauptseite
METAR-TAF:

METAR-TAF

Flughäfen :

Gaithersburg, Maryland, Vereinigte Staaten

Breite: 39-10-06N, Länge: 077-09-58W, Höhe: 164 m

Beobachtung

Neuester Wetterbericht von vor 11 Minuten, um 23:56 UTC
Wind 3 kt aus Süd
Temperatur 13°C
Luftfeuchtigkeit 94%
Luftdruck 1015 hPa
Sichtweite: 9.7 km
Leicht bewölkt in der Höhe von 7000 ft
Geschlossene Wolkendecke in der Höhe von 9500 ft
Leichtregen, feuchter Dunst

METAR: KGAI 142356Z AUTO 19003KT 6SM -RA BR FEW070 OVC095 13/12 A2996 RMK AO2 SLP160 P0003 60015 T01330122 10144 20128 58001

Zeit: 20:07 (00:07 UTC)


TAF: fehlend

Wetterbeobachtungen und Prognosen von mehr als 4000 Flughäfen (METAR und TAF Bericht).

Die verfügbaren Stationen werden durch gelbe und rote Markierungen auf der Karte dargestellt.

Führen Sie die Maus auf sie, um den Namen der Station zu sehen.

Darauf klicken, um die Beobachtung von Wetterbeobachtungen und Prognosen zu sehen.

Um die Karte zu ändern : klicken Sie auf den grünen Tasten mit einem schwarzen Kreuz Zum Vergrößern, auf den grünen Button mit einem Gedankenstrich zu verkleinern, oder auf die grünen Pfeile für benachbarte Karten.


METAR-TAF: